sensor_id;sensor_type;location;lat;lon;timestamp;pressure;altitude;pressure_sealevel;temperature;humidity
64889;BME280;51386;53.082;8.816;2023-06-22T00:00:59;101872.53;;;25.99;47.85
64889;BME280;51386;53.082;8.816;2023-06-22T00:03:28;101887.16;;;26.03;47.03
64889;BME280;51386;53.082;8.816;2023-06-22T00:05:56;101882.09;;;26.07;46.88
64889;BME280;51386;53.082;8.816;2023-06-22T00:08:23;101879.13;;;26.08;47.56
64889;BME280;51386;53.082;8.816;2023-06-22T00:10:50;101888.06;;;26.09;47.49
64889;BME280;51386;53.082;8.816;2023-06-22T00:13:17;101889.13;;;26.08;46.90
64889;BME280;51386;53.082;8.816;2023-06-22T00:15:44;101889.06;;;26.03;46.50
64889;BME280;51386;53.082;8.816;2023-06-22T00:18:11;101892.75;;;25.97;46.67
64889;BME280;51386;53.082;8.816;2023-06-22T00:20:41;101891.06;;;25.91;47.19
64889;BME280;51386;53.082;8.816;2023-06-22T00:23:08;101879.63;;;25.84;47.38
64889;BME280;51386;53.082;8.816;2023-06-22T00:25:37;101885.75;;;25.79;46.99
64889;BME280;51386;53.082;8.816;2023-06-22T00:28:04;101885.69;;;25.74;47.46
64889;BME280;51386;53.082;8.816;2023-06-22T00:30:32;101886.16;;;25.71;47.76
64889;BME280;51386;53.082;8.816;2023-06-22T00:33:00;101886.72;;;25.73;48.20
64889;BME280;51386;53.082;8.816;2023-06-22T00:35:27;101880.03;;;25.76;48.36
64889;BME280;51386;53.082;8.816;2023-06-22T00:37:58;101879.28;;;25.80;47.59
64889;BME280;51386;53.082;8.816;2023-06-22T00:40:32;101886.53;;;25.80;47.62
64889;BME280;51386;53.082;8.816;2023-06-22T00:42:59;101876.28;;;25.77;47.50
64889;BME280;51386;53.082;8.816;2023-06-22T00:45:26;101881.59;;;25.72;47.44
64889;BME280;51386;53.082;8.816;2023-06-22T00:47:57;101878.31;;;25.70;48.11
64889;BME280;51386;53.082;8.816;2023-06-22T00:50:27;101881.03;;;25.70;48.39
64889;BME280;51386;53.082;8.816;2023-06-22T00:52:59;101886.41;;;25.70;48.46
64889;BME280;51386;53.082;8.816;2023-06-22T00:55:27;101880.50;;;25.73;47.91
64889;BME280;51386;53.082;8.816;2023-06-22T00:57:54;101874.63;;;25.76;47.79
64889;BME280;51386;53.082;8.816;2023-06-22T01:00:24;101879.53;;;25.79;48.02
64889;BME280;51386;53.082;8.816;2023-06-22T01:02:52;101875.19;;;25.78;47.96
64889;BME280;51386;53.082;8.816;2023-06-22T01:05:21;101874.63;;;25.76;48.31
64889;BME280;51386;53.082;8.816;2023-06-22T01:08:21;101875.03;;;25.68;48.11
64889;BME280;51386;53.082;8.816;2023-06-22T01:10:54;101871.84;;;25.71;48.62
64889;BME280;51386;53.082;8.816;2023-06-22T01:13:30;101878.53;;;25.68;48.78
64889;BME280;51386;53.082;8.816;2023-06-22T01:16:05;101874.81;;;25.69;48.14
64889;BME280;51386;53.082;8.816;2023-06-22T01:18:40;101864.84;;;25.70;48.19
64889;BME280;51386;53.082;8.816;2023-06-22T01:21:14;101873.50;;;25.72;48.78
64889;BME280;51386;53.082;8.816;2023-06-22T01:24:02;101872.66;;;25.71;48.22
64889;BME280;51386;53.082;8.816;2023-06-22T01:26:40;101868.09;;;25.72;48.75
64889;BME280;51386;53.082;8.816;2023-06-22T01:29:12;101864.31;;;25.73;48.33
64889;BME280;51386;53.082;8.816;2023-06-22T01:31:42;101856.16;;;25.68;48.26
64889;BME280;51386;53.082;8.816;2023-06-22T01:34:12;101864.50;;;25.66;48.48
64889;BME280;51386;53.082;8.816;2023-06-22T01:36:41;101871.75;;;25.66;48.55
64889;BME280;51386;53.082;8.816;2023-06-22T01:39:10;101872.84;;;25.65;48.21
64889;BME280;51386;53.082;8.816;2023-06-22T01:41:39;101872.25;;;25.63;48.41
64889;BME280;51386;53.082;8.816;2023-06-22T01:44:09;101861.16;;;25.59;48.85
64889;BME280;51386;53.082;8.816;2023-06-22T01:46:39;101863.50;;;25.55;48.77
64889;BME280;51386;53.082;8.816;2023-06-22T01:49:08;101846.69;;;25.48;48.43
64889;BME280;51386;53.082;8.816;2023-06-22T01:51:35;101842.25;;;25.42;48.73
64889;BME280;51386;53.082;8.816;2023-06-22T01:54:02;101838.34;;;25.33;48.65
64889;BME280;51386;53.082;8.816;2023-06-22T01:56:29;101842.25;;;25.26;48.95
64889;BME280;51386;53.082;8.816;2023-06-22T01:59:21;101843.38;;;25.13;49.38
64889;BME280;51386;53.082;8.816;2023-06-22T02:01:59;101844.44;;;25.12;49.43
64889;BME280;51386;53.082;8.816;2023-06-22T02:04:36;101842.72;;;25.06;49.58
64889;BME280;51386;53.082;8.816;2023-06-22T02:07:13;101842.63;;;25.01;49.41
64889;BME280;51386;53.082;8.816;2023-06-22T02:09:44;101843.59;;;24.95;50.29
64889;BME280;51386;53.082;8.816;2023-06-22T02:12:18;101845.16;;;24.91;49.56
64889;BME280;51386;53.082;8.816;2023-06-22T02:14:48;101849.38;;;24.87;49.80
64889;BME280;51386;53.082;8.816;2023-06-22T02:17:17;101853.63;;;24.83;50.04
64889;BME280;51386;53.082;8.816;2023-06-22T02:19:44;101855.16;;;24.79;50.14
64889;BME280;51386;53.082;8.816;2023-06-22T02:22:11;101852.91;;;24.76;50.36
64889;BME280;51386;53.082;8.816;2023-06-22T02:24:40;101844.25;;;24.74;50.44
64889;BME280;51386;53.082;8.816;2023-06-22T02:27:07;101853.97;;;24.75;50.90
64889;BME280;51386;53.082;8.816;2023-06-22T02:29:34;101850.81;;;24.78;50.60
64889;BME280;51386;53.082;8.816;2023-06-22T02:32:03;101853.25;;;24.79;50.02
64889;BME280;51386;53.082;8.816;2023-06-22T02:34:31;101851.41;;;24.80;50.48
64889;BME280;51386;53.082;8.816;2023-06-22T02:37:00;101852.56;;;24.84;50.22
64889;BME280;51386;53.082;8.816;2023-06-22T02:39:29;101855.59;;;24.87;50.55
64889;BME280;51386;53.082;8.816;2023-06-22T02:41:56;101865.63;;;24.92;49.88
64889;BME280;51386;53.082;8.816;2023-06-22T02:44:23;101854.38;;;24.95;50.28
64889;BME280;51386;53.082;8.816;2023-06-22T02:46:50;101849.91;;;25.01;49.44
64889;BME280;51386;53.082;8.816;2023-06-22T02:49:18;101844.25;;;25.02;49.83
64889;BME280;51386;53.082;8.816;2023-06-22T02:51:47;101838.63;;;25.04;50.12
64889;BME280;51386;53.082;8.816;2023-06-22T02:54:14;101847.28;;;25.06;49.90
64889;BME280;51386;53.082;8.816;2023-06-22T02:56:41;101846.22;;;25.07;49.39
64889;BME280;51386;53.082;8.816;2023-06-22T02:59:10;101848.09;;;25.06;49.88
64889;BME280;51386;53.082;8.816;2023-06-22T03:01:37;101845.97;;;25.08;49.51
64889;BME280;51386;53.082;8.816;2023-06-22T03:04:08;101855.72;;;25.09;49.83
64889;BME280;51386;53.082;8.816;2023-06-22T03:06:36;101851.88;;;25.05;49.08
64889;BME280;51386;53.082;8.816;2023-06-22T03:09:05;101855.63;;;25.04;49.82
64889;BME280;51386;53.082;8.816;2023-06-22T03:11:33;101862.66;;;25.05;49.60
64889;BME280;51386;53.082;8.816;2023-06-22T03:14:01;101864.28;;;25.06;49.60
64889;BME280;51386;53.082;8.816;2023-06-22T03:16:28;101861.34;;;25.08;49.50
64889;BME280;51386;53.082;8.816;2023-06-22T03:18:56;101856.53;;;25.10;49.13
64889;BME280;51386;53.082;8.816;2023-06-22T03:21:24;101857.94;;;25.12;48.94
64889;BME280;51386;53.082;8.816;2023-06-22T03:23:52;101859.06;;;25.16;49.17
64889;BME280;51386;53.082;8.816;2023-06-22T03:26:19;101866.09;;;25.17;48.87
64889;BME280;51386;53.082;8.816;2023-06-22T03:28:47;101862.81;;;25.15;49.53
64889;BME280;51386;53.082;8.816;2023-06-22T03:31:14;101859.06;;;25.16;49.42
64889;BME280;51386;53.082;8.816;2023-06-22T03:33:40;101859.53;;;25.13;48.61
64889;BME280;51386;53.082;8.816;2023-06-22T03:36:08;101864.84;;;25.08;48.46
64889;BME280;51386;53.082;8.816;2023-06-22T03:38:35;101866.88;;;25.01;48.66
64889;BME280;51386;53.082;8.816;2023-06-22T03:41:03;101868.69;;;24.96;49.36
64889;BME280;51386;53.082;8.816;2023-06-22T03:43:30;101872.09;;;24.91;49.19
64889;BME280;51386;53.082;8.816;2023-06-22T03:45:57;101879.59;;;24.89;49.74
64889;BME280;51386;53.082;8.816;2023-06-22T03:48:25;101875.84;;;24.90;49.91
64889;BME280;51386;53.082;8.816;2023-06-22T03:50:52;101882.88;;;24.91;49.75
64889;BME280;51386;53.082;8.816;2023-06-22T03:53:19;101894.22;;;24.93;49.61
64889;BME280;51386;53.082;8.816;2023-06-22T03:55:50;101881.31;;;24.95;49.55
64889;BME280;51386;53.082;8.816;2023-06-22T03:58:20;101887.84;;;24.99;49.68
64889;BME280;51386;53.082;8.816;2023-06-22T04:00:47;101887.63;;;25.01;49.40
64889;BME280;51386;53.082;8.816;2023-06-22T04:03:15;101886.31;;;25.03;49.23
64889;BME280;51386;53.082;8.816;2023-06-22T04:05:42;101891.69;;;25.03;49.23
64889;BME280;51386;53.082;8.816;2023-06-22T04:08:09;101892.31;;;25.05;49.60
64889;BME280;51386;53.082;8.816;2023-06-22T04:10:36;101894.50;;;25.08;49.88
64889;BME280;51386;53.082;8.816;2023-06-22T04:13:04;101895.09;;;25.10;49.16
64889;BME280;51386;53.082;8.816;2023-06-22T04:15:32;101892.13;;;25.12;49.73
64889;BME280;51386;53.082;8.816;2023-06-22T04:17:59;101888.16;;;25.14;49.17
64889;BME280;51386;53.082;8.816;2023-06-22T04:20:26;101896.31;;;25.19;49.45
64889;BME280;51386;53.082;8.816;2023-06-22T04:22:56;101889.84;;;25.20;49.51
64889;BME280;51386;53.082;8.816;2023-06-22T04:25:23;101895.50;;;25.19;49.48
64889;BME280;51386;53.082;8.816;2023-06-22T04:27:50;101896.06;;;25.21;49.64
64889;BME280;51386;53.082;8.816;2023-06-22T04:30:17;101889.38;;;25.23;49.60
64889;BME280;51386;53.082;8.816;2023-06-22T04:32:46;101894.28;;;25.26;49.49
64889;BME280;51386;53.082;8.816;2023-06-22T04:35:22;101891.59;;;25.26;49.44
64889;BME280;51386;53.082;8.816;2023-06-22T04:37:50;101884.56;;;25.25;49.17
64889;BME280;51386;53.082;8.816;2023-06-22T04:40:22;101887.25;;;25.25;49.22
64889;BME280;51386;53.082;8.816;2023-06-22T04:42:49;101886.19;;;25.26;49.43
64889;BME280;51386;53.082;8.816;2023-06-22T04:45:20;101888.66;;;25.28;49.63
64889;BME280;51386;53.082;8.816;2023-06-22T04:47:49;101886.19;;;25.26;49.63
64889;BME280;51386;53.082;8.816;2023-06-22T04:50:16;101889.00;;;25.31;49.73
64889;BME280;51386;53.082;8.816;2023-06-22T04:52:44;101891.44;;;25.33;49.44
64889;BME280;51386;53.082;8.816;2023-06-22T04:55:12;101899.63;;;25.38;49.12
64889;BME280;51386;53.082;8.816;2023-06-22T04:57:41;101885.88;;;25.39;49.46
64889;BME280;51386;53.082;8.816;2023-06-22T05:00:17;101886.22;;;25.43;48.93
64889;BME280;51386;53.082;8.816;2023-06-22T05:02:46;101890.91;;;25.47;49.12
64889;BME280;51386;53.082;8.816;2023-06-22T05:05:15;101883.72;;;25.53;49.55
64889;BME280;51386;53.082;8.816;2023-06-22T05:07:44;101880.84;;;25.60;48.91
64889;BME280;51386;53.082;8.816;2023-06-22T05:10:12;101887.38;;;25.64;48.79
64889;BME280;51386;53.082;8.816;2023-06-22T05:12:40;101884.78;;;25.69;48.80
64889;BME280;51386;53.082;8.816;2023-06-22T05:15:09;101886.72;;;25.73;48.63
64889;BME280;51386;53.082;8.816;2023-06-22T05:17:37;101890.56;;;25.77;48.77
64889;BME280;51386;53.082;8.816;2023-06-22T05:20:11;101885.50;;;25.81;48.45
64889;BME280;51386;53.082;8.816;2023-06-22T05:22:40;101874.44;;;25.82;48.34
64889;BME280;51386;53.082;8.816;2023-06-22T05:25:10;101872.09;;;25.86;48.59
64889;BME280;51386;53.082;8.816;2023-06-22T05:27:37;101872.16;;;25.91;48.47
64889;BME280;51386;53.082;8.816;2023-06-22T05:30:09;101876.56;;;25.97;48.10
64889;BME280;51386;53.082;8.816;2023-06-22T05:32:36;101873.94;;;26.02;48.28
64889;BME280;51386;53.082;8.816;2023-06-22T05:35:04;101872.34;;;26.06;48.42
64889;BME280;51386;53.082;8.816;2023-06-22T05:37:31;101877.03;;;26.10;47.56
64889;BME280;51386;53.082;8.816;2023-06-22T05:40:00;101867.63;;;26.13;47.52
64889;BME280;51386;53.082;8.816;2023-06-22T05:42:27;101870.31;;;26.13;47.72
64889;BME280;51386;53.082;8.816;2023-06-22T05:44:55;101866.88;;;26.17;47.22
64889;BME280;51386;53.082;8.816;2023-06-22T05:47:22;101867.50;;;26.25;47.20
64889;BME280;51386;53.082;8.816;2023-06-22T05:49:49;101862.44;;;26.28;46.66
64889;BME280;51386;53.082;8.816;2023-06-22T05:52:16;101869.22;;;26.31;47.24
64889;BME280;51386;53.082;8.816;2023-06-22T05:54:43;101864.69;;;26.36;46.92
64889;BME280;51386;53.082;8.816;2023-06-22T05:57:12;101873.66;;;26.42;46.88
64889;BME280;51386;53.082;8.816;2023-06-22T05:59:39;101864.81;;;26.46;46.23
64889;BME280;51386;53.082;8.816;2023-06-22T06:02:06;101864.09;;;26.56;46.83
64889;BME280;51386;53.082;8.816;2023-06-22T06:04:33;101872.06;;;26.67;46.63
64889;BME280;51386;53.082;8.816;2023-06-22T06:07:01;101869.03;;;26.80;46.15
64889;BME280;51386;53.082;8.816;2023-06-22T06:09:28;101861.53;;;26.88;45.70
64889;BME280;51386;53.082;8.816;2023-06-22T06:11:55;101858.38;;;26.96;45.61
64889;BME280;51386;53.082;8.816;2023-06-22T06:14:23;101864.38;;;27.03;45.91
64889;BME280;51386;53.082;8.816;2023-06-22T06:16:50;101862.53;;;27.08;45.27
64889;BME280;51386;53.082;8.816;2023-06-22T06:19:17;101865.59;;;27.17;45.41
64889;BME280;51386;53.082;8.816;2023-06-22T06:21:44;101867.00;;;27.24;44.83
64889;BME280;51386;53.082;8.816;2023-06-22T06:24:12;101858.13;;;27.29;44.70
64889;BME280;51386;53.082;8.816;2023-06-22T06:26:39;101857.59;;;27.32;44.50
64889;BME280;51386;53.082;8.816;2023-06-22T06:29:09;101855.44;;;27.34;44.43
64889;BME280;51386;53.082;8.816;2023-06-22T06:31:37;101860.34;;;27.37;44.63
64889;BME280;51386;53.082;8.816;2023-06-22T06:34:04;101862.63;;;27.45;44.67
64889;BME280;51386;53.082;8.816;2023-06-22T06:36:31;101872.94;;;27.53;44.20
64889;BME280;51386;53.082;8.816;2023-06-22T06:38:58;101857.88;;;27.62;44.28
64889;BME280;51386;53.082;8.816;2023-06-22T06:41:25;101862.22;;;27.68;44.11
64889;BME280;51386;53.082;8.816;2023-06-22T06:43:52;101854.66;;;27.70;43.97
64889;BME280;51386;53.082;8.816;2023-06-22T06:46:19;101854.66;;;27.70;44.01
64889;BME280;51386;53.082;8.816;2023-06-22T06:48:48;101845.47;;;27.71;43.80
64889;BME280;51386;53.082;8.816;2023-06-22T06:51:15;101851.44;;;27.73;43.75
64889;BME280;51386;53.082;8.816;2023-06-22T06:53:42;101847.69;;;27.79;43.85
64889;BME280;51386;53.082;8.816;2023-06-22T06:56:09;101852.88;;;27.86;43.83
64889;BME280;51386;53.082;8.816;2023-06-22T06:58:40;101852.91;;;27.96;43.99
64889;BME280;51386;53.082;8.816;2023-06-22T07:01:07;101857.59;;;28.05;43.61
64889;BME280;51386;53.082;8.816;2023-06-22T07:03:34;101856.59;;;28.16;43.64
64889;BME280;51386;53.082;8.816;2023-06-22T07:06:03;101855.28;;;28.29;43.27
64889;BME280;51386;53.082;8.816;2023-06-22T07:08:30;101862.94;;;28.42;43.14
64889;BME280;51386;53.082;8.816;2023-06-22T07:10:57;101855.38;;;28.54;42.97
64889;BME280;51386;53.082;8.816;2023-06-22T07:13:24;101856.25;;;28.65;42.67
64889;BME280;51386;53.082;8.816;2023-06-22T07:15:51;101857.91;;;28.76;42.49
64889;BME280;51386;53.082;8.816;2023-06-22T07:18:18;101858.47;;;28.83;42.19
64889;BME280;51386;53.082;8.816;2023-06-22T07:20:45;101855.22;;;28.91;42.06
64889;BME280;51386;53.082;8.816;2023-06-22T07:23:14;101863.66;;;29.00;41.46
64889;BME280;51386;53.082;8.816;2023-06-22T07:25:41;101857.94;;;29.06;41.55
64889;BME280;51386;53.082;8.816;2023-06-22T07:28:09;101852.53;;;29.16;41.73
64889;BME280;51386;53.082;8.816;2023-06-22T07:30:36;101849.03;;;29.26;41.37
64889;BME280;51386;53.082;8.816;2023-06-22T07:33:03;101845.78;;;29.34;41.00
64889;BME280;51386;53.082;8.816;2023-06-22T07:35:31;101849.03;;;29.41;41.01
64889;BME280;51386;53.082;8.816;2023-06-22T07:37:58;101841.69;;;29.46;40.58
64889;BME280;51386;53.082;8.816;2023-06-22T07:40:31;101842.75;;;29.56;40.41
64889;BME280;51386;53.082;8.816;2023-06-22T07:42:58;101845.19;;;29.62;40.37
64889;BME280;51386;53.082;8.816;2023-06-22T07:45:25;101850.34;;;29.69;40.27
64889;BME280;51386;53.082;8.816;2023-06-22T07:47:52;101849.78;;;29.72;39.84
64889;BME280;51386;53.082;8.816;2023-06-22T07:50:19;101848.44;;;29.79;39.91
64889;BME280;51386;53.082;8.816;2023-06-22T07:52:46;101841.13;;;29.85;39.28
64889;BME280;51386;53.082;8.816;2023-06-22T07:55:14;101836.22;;;29.87;38.70
64889;BME280;51386;53.082;8.816;2023-06-22T07:57:43;101834.03;;;29.94;38.55
64889;BME280;51386;53.082;8.816;2023-06-22T08:00:11;101827.75;;;29.98;38.73
64889;BME280;51386;53.082;8.816;2023-06-22T08:02:44;101826.66;;;30.04;38.40
64889;BME280;51386;53.082;8.816;2023-06-22T08:05:14;101817.69;;;30.09;38.68
64889;BME280;51386;53.082;8.816;2023-06-22T08:08:01;101820.88;;;30.21;38.39
64889;BME280;51386;53.082;8.816;2023-06-22T08:10:28;101813.19;;;30.38;38.21
64889;BME280;51386;53.082;8.816;2023-06-22T08:12:57;101817.19;;;30.56;38.55
64889;BME280;51386;53.082;8.816;2023-06-22T08:15:26;101816.28;;;30.70;38.22
64889;BME280;51386;53.082;8.816;2023-06-22T08:17:54;101815.63;;;30.89;38.18
64889;BME280;51386;53.082;8.816;2023-06-22T08:20:21;101803.84;;;31.32;37.43
64889;BME280;51386;53.082;8.816;2023-06-22T08:22:48;101809.00;;;32.09;36.45
64889;BME280;51386;53.082;8.816;2023-06-22T08:25:15;101805.25;;;33.17;34.92
64889;BME280;51386;53.082;8.816;2023-06-22T08:27:45;101806.81;;;34.46;33.26
64889;BME280;51386;53.082;8.816;2023-06-22T08:30:16;101808.31;;;35.63;30.63
64889;BME280;51386;53.082;8.816;2023-06-22T08:32:44;101807.72;;;36.48;28.99
64889;BME280;51386;53.082;8.816;2023-06-22T08:35:11;101810.38;;;37.33;28.64
64889;BME280;51386;53.082;8.816;2023-06-22T08:37:38;101807.97;;;38.08;27.00
64889;BME280;51386;53.082;8.816;2023-06-22T08:40:09;101803.88;;;38.76;25.85
64889;BME280;51386;53.082;8.816;2023-06-22T08:42:37;101811.13;;;39.13;24.59
64889;BME280;51386;53.082;8.816;2023-06-22T08:45:06;101800.75;;;39.43;23.81
64889;BME280;51386;53.082;8.816;2023-06-22T08:47:35;101801.13;;;39.77;23.57
64889;BME280;51386;53.082;8.816;2023-06-22T08:50:03;101802.97;;;40.10;22.99
64889;BME280;51386;53.082;8.816;2023-06-22T08:52:31;101795.50;;;40.50;23.45
64889;BME280;51386;53.082;8.816;2023-06-22T08:54:58;101792.44;;;41.10;22.89
64889;BME280;51386;53.082;8.816;2023-06-22T08:57:25;101794.25;;;41.81;22.59
64889;BME280;51386;53.082;8.816;2023-06-22T08:59:52;101794.25;;;42.51;21.63
64889;BME280;51386;53.082;8.816;2023-06-22T09:02:20;101787.44;;;43.09;20.98
64889;BME280;51386;53.082;8.816;2023-06-22T09:04:48;101790.47;;;43.46;19.40
64889;BME280;51386;53.082;8.816;2023-06-22T09:07:16;101791.81;;;43.82;19.06
64889;BME280;51386;53.082;8.816;2023-06-22T09:09:49;101782.81;;;44.18;19.14
64889;BME280;51386;53.082;8.816;2023-06-22T09:12:20;101784.34;;;44.45;18.37
64889;BME280;51386;53.082;8.816;2023-06-22T09:14:49;101784.72;;;44.43;17.79
64889;BME280;51386;53.082;8.816;2023-06-22T09:17:16;101782.50;;;44.56;18.28
64889;BME280;51386;53.082;8.816;2023-06-22T09:19:43;101779.44;;;44.65;17.82
64889;BME280;51386;53.082;8.816;2023-06-22T09:22:32;101780.06;;;44.51;17.75
64889;BME280;51386;53.082;8.816;2023-06-22T09:24:59;101775.88;;;44.34;18.00
64889;BME280;51386;53.082;8.816;2023-06-22T09:27:26;101769.28;;;44.46;18.04
64889;BME280;51386;53.082;8.816;2023-06-22T09:29:53;101770.78;;;44.73;17.49
64889;BME280;51386;53.082;8.816;2023-06-22T09:32:20;101763.06;;;44.96;17.70
64889;BME280;51386;53.082;8.816;2023-06-22T09:34:48;101775.13;;;45.08;17.62
64889;BME280;51386;53.082;8.816;2023-06-22T09:37:16;101761.06;;;44.93;17.42
64889;BME280;51386;53.082;8.816;2023-06-22T09:39:45;101760.53;;;44.81;17.15
64889;BME280;51386;53.082;8.816;2023-06-22T09:42:12;101753.34;;;44.76;17.48
64889;BME280;51386;53.082;8.816;2023-06-22T09:44:40;101753.44;;;44.83;18.06
64889;BME280;51386;53.082;8.816;2023-06-22T09:47:07;101746.84;;;44.65;18.15
64889;BME280;51386;53.082;8.816;2023-06-22T09:49:34;101748.31;;;44.19;18.30
64889;BME280;51386;53.082;8.816;2023-06-22T09:52:14;101749.41;;;43.58;19.05
64889;BME280;51386;53.082;8.816;2023-06-22T09:54:41;101744.38;;;42.51;19.64
64889;BME280;51386;53.082;8.816;2023-06-22T09:57:09;101741.84;;;42.07;20.45
64889;BME280;51386;53.082;8.816;2023-06-22T09:59:37;101732.66;;;42.22;20.26
64889;BME280;51386;53.082;8.816;2023-06-22T10:02:05;101732.75;;;42.45;19.86
64889;BME280;51386;53.082;8.816;2023-06-22T10:04:32;101727.88;;;42.80;19.98
64889;BME280;51386;53.082;8.816;2023-06-22T10:07:00;101725.31;;;43.36;19.39
64889;BME280;51386;53.082;8.816;2023-06-22T10:09:27;101718.03;;;43.81;19.36
64889;BME280;51386;53.082;8.816;2023-06-22T10:11:54;101717.84;;;44.29;18.98
64889;BME280;51386;53.082;8.816;2023-06-22T10:14:22;101706.13;;;44.43;18.95
64889;BME280;51386;53.082;8.816;2023-06-22T10:16:52;101707.84;;;43.92;18.76
64889;BME280;51386;53.082;8.816;2023-06-22T10:19:19;101693.34;;;43.46;19.60
64889;BME280;51386;53.082;8.816;2023-06-22T10:21:46;101699.94;;;43.15;20.01
64889;BME280;51386;53.082;8.816;2023-06-22T10:24:14;101696.34;;;42.46;20.33
64889;BME280;51386;53.082;8.816;2023-06-22T10:26:41;101699.72;;;41.79;20.91
64889;BME280;51386;53.082;8.816;2023-06-22T10:29:08;101696.84;;;42.10;20.63
64889;BME280;51386;53.082;8.816;2023-06-22T10:31:44;101693.97;;;42.26;20.44
64889;BME280;51386;53.082;8.816;2023-06-22T10:34:11;101694.91;;;41.95;21.02
64889;BME280;51386;53.082;8.816;2023-06-22T10:36:38;101693.09;;;41.33;21.66
64889;BME280;51386;53.082;8.816;2023-06-22T10:39:05;101699.22;;;40.64;21.72
64889;BME280;51386;53.082;8.816;2023-06-22T10:41:32;101695.06;;;40.15;22.66
64889;BME280;51386;53.082;8.816;2023-06-22T10:43:59;101691.47;;;39.74;23.40
64889;BME280;51386;53.082;8.816;2023-06-22T10:46:26;101692.19;;;39.23;24.01
64889;BME280;51386;53.082;8.816;2023-06-22T10:48:55;101691.56;;;38.81;24.30
64889;BME280;51386;53.082;8.816;2023-06-22T10:51:25;101693.63;;;38.51;24.65
64889;BME280;51386;53.082;8.816;2023-06-22T10:53:52;101683.19;;;38.24;25.05
64889;BME280;51386;53.082;8.816;2023-06-22T10:56:19;101684.19;;;37.99;25.35
64889;BME280;51386;53.082;8.816;2023-06-22T10:58:46;101676.72;;;37.79;25.61
64889;BME280;51386;53.082;8.816;2023-06-22T11:01:14;101688.31;;;37.64;26.24
64889;BME280;51386;53.082;8.816;2023-06-22T11:04:02;101694.88;;;37.51;26.61
64889;BME280;51386;53.082;8.816;2023-06-22T11:06:30;101684.91;;;37.38;26.58
64889;BME280;51386;53.082;8.816;2023-06-22T11:08:57;101692.84;;;37.30;26.69
64889;BME280;51386;53.082;8.816;2023-06-22T11:11:38;101691.28;;;37.21;25.84
64889;BME280;51386;53.082;8.816;2023-06-22T11:14:05;101690.38;;;37.08;26.66
64889;BME280;51386;53.082;8.816;2023-06-22T11:16:32;101686.84;;;36.99;26.45
64889;BME280;51386;53.082;8.816;2023-06-22T11:18:59;101685.44;;;36.85;26.62
64889;BME280;51386;53.082;8.816;2023-06-22T11:21:27;101679.94;;;36.76;26.95
64889;BME280;51386;53.082;8.816;2023-06-22T11:23:54;101674.31;;;36.64;27.64
64889;BME280;51386;53.082;8.816;2023-06-22T11:26:21;101665.78;;;36.57;26.70
64889;BME280;51386;53.082;8.816;2023-06-22T11:28:48;101662.22;;;36.56;26.59
64889;BME280;51386;53.082;8.816;2023-06-22T11:31:15;101661.28;;;36.44;27.38
64889;BME280;51386;53.082;8.816;2023-06-22T11:33:53;101662.09;;;36.36;27.19
64889;BME280;51386;53.082;8.816;2023-06-22T11:36:20;101655.78;;;36.35;27.88
64889;BME280;51386;53.082;8.816;2023-06-22T11:38:48;101660.19;;;36.28;28.46
64889;BME280;51386;53.082;8.816;2023-06-22T11:41:16;101650.66;;;36.17;28.58
64889;BME280;51386;53.082;8.816;2023-06-22T11:43:42;101655.16;;;36.04;28.65
64889;BME280;51386;53.082;8.816;2023-06-22T11:46:10;101638.22;;;35.93;28.09
64889;BME280;51386;53.082;8.816;2023-06-22T11:48:37;101633.72;;;35.89;28.40
64889;BME280;51386;53.082;8.816;2023-06-22T11:51:04;101635.47;;;35.93;28.58
64889;BME280;51386;53.082;8.816;2023-06-22T11:53:33;101636.59;;;35.92;28.69
64889;BME280;51386;53.082;8.816;2023-06-22T11:56:02;101629.50;;;35.91;28.69
64889;BME280;51386;53.082;8.816;2023-06-22T11:58:29;101627.06;;;35.90;28.41
64889;BME280;51386;53.082;8.816;2023-06-22T12:00:56;101633.69;;;35.80;28.45
64889;BME280;51386;53.082;8.816;2023-06-22T12:03:23;101628.53;;;35.70;29.02
64889;BME280;51386;53.082;8.816;2023-06-22T12:05:51;101624.03;;;35.74;28.61
64889;BME280;51386;53.082;8.816;2023-06-22T12:08:21;101622.56;;;35.85;28.92
64889;BME280;51386;53.082;8.816;2023-06-22T12:10:49;101623.38;;;35.94;28.18
64889;BME280;51386;53.082;8.816;2023-06-22T12:13:18;101618.06;;;36.07;28.28
64889;BME280;51386;53.082;8.816;2023-06-22T12:15:45;101609.50;;;36.17;28.38
64889;BME280;51386;53.082;8.816;2023-06-22T12:18:12;101606.59;;;36.22;28.15
64889;BME280;51386;53.082;8.816;2023-06-22T12:20:41;101611.13;;;36.18;27.82
64889;BME280;51386;53.082;8.816;2023-06-22T12:23:08;101618.88;;;36.16;27.87
64889;BME280;51386;53.082;8.816;2023-06-22T12:25:35;101611.78;;;36.15;28.28
64889;BME280;51386;53.082;8.816;2023-06-22T12:28:02;101602.25;;;36.12;27.66
64889;BME280;51386;53.082;8.816;2023-06-22T12:30:33;101605.34;;;36.11;28.31
64889;BME280;51386;53.082;8.816;2023-06-22T12:33:00;101599.53;;;36.04;28.18
64889;BME280;51386;53.082;8.816;2023-06-22T12:35:27;101589.53;;;35.99;28.27
64889;BME280;51386;53.082;8.816;2023-06-22T12:37:54;101596.13;;;35.89;28.17
64889;BME280;51386;53.082;8.816;2023-06-22T12:40:21;101591.28;;;35.78;27.90
64889;BME280;51386;53.082;8.816;2023-06-22T12:42:48;101590.94;;;35.71;27.92
64889;BME280;51386;53.082;8.816;2023-06-22T12:45:16;101583.53;;;35.71;28.24
64889;BME280;51386;53.082;8.816;2023-06-22T12:47:45;101570.66;;;35.72;27.99
64889;BME280;51386;53.082;8.816;2023-06-22T12:50:12;101568.88;;;35.67;28.09
64889;BME280;51386;53.082;8.816;2023-06-22T12:52:39;101554.88;;;35.52;28.46
64889;BME280;51386;53.082;8.816;2023-06-22T12:55:08;101548.53;;;35.34;28.76
64889;BME280;51386;53.082;8.816;2023-06-22T12:57:35;101559.13;;;35.10;29.32